SDM210 UMMS-ULLI
Flight info
| Callsign | SDM210 |
|---|---|
| Flight time | N/A |
| Altitude | 37000 |
| Route | AGNEF2G AGNEF N743 DITBI T782 KOLET KOLET1V |
| Aircraft | B742/H-VGDW/C |
Departure
| Time | 2026-05-06 14:29 |
|---|---|
| Airport | Minsk National Airport (UMMS) |
Arrival
| Time | N/A |
|---|---|
| Airport | Pulkovo Airport (ULLI) |
| Time | Latitude | Longitude | Altitude | Speed | Heading |
|---|---|---|---|---|---|
| 2026-05-06 14:05 | 53.88663 | 28.03428 | 654 ft | 0 kts | 319° |
| 2026-05-06 14:21 | 53.88664 | 28.03427 | 654 ft | 0 kts | 319° |
| 2026-05-06 14:21 | 53.88683 | 28.03398 | 653 ft | 7 kts | 314° |
| 2026-05-06 14:21 | 53.88686 | 28.03316 | 653 ft | 9 kts | 218° |
| 2026-05-06 14:21 | 53.88619 | 28.03351 | 653 ft | 13 kts | 143° |
| 2026-05-06 14:22 | 53.88537 | 28.03472 | 654 ft | 15 kts | 136° |
| 2026-05-06 14:22 | 53.88547 | 28.03602 | 655 ft | 15 kts | 51° |
| 2026-05-06 14:22 | 53.88634 | 28.03768 | 658 ft | 22 kts | 49° |
| 2026-05-06 14:22 | 53.88749 | 28.03994 | 661 ft | 28 kts | 49° |
| 2026-05-06 14:23 | 53.88894 | 28.04273 | 667 ft | 29 kts | 49° |
| 2026-05-06 14:23 | 53.89024 | 28.04524 | 674 ft | 29 kts | 49° |
| 2026-05-06 14:23 | 53.89135 | 28.04741 | 680 ft | 23 kts | 49° |
| 2026-05-06 14:23 | 53.89241 | 28.04836 | 683 ft | 2 kts | 311° |
| 2026-05-06 14:24 | 53.89259 | 28.04806 | 682 ft | 8 kts | 318° |
| 2026-05-06 14:24 | 53.89289 | 28.04759 | 681 ft | 0 kts | 316° |
| 2026-05-06 14:24 | 53.89318 | 28.04713 | 680 ft | 10 kts | 316° |
| 2026-05-06 14:25 | 53.89397 | 28.04592 | 679 ft | 19 kts | 318° |
| 2026-05-06 14:25 | 53.89521 | 28.04410 | 675 ft | 28 kts | 318° |
| 2026-05-06 14:25 | 53.89698 | 28.04149 | 666 ft | 37 kts | 319° |
| 2026-05-06 14:25 | 53.89898 | 28.03853 | 657 ft | 39 kts | 319° |
| 2026-05-06 14:26 | 53.90065 | 28.03609 | 650 ft | 31 kts | 319° |
| 2026-05-06 14:26 | 53.90210 | 28.03392 | 647 ft | 19 kts | 319° |
| 2026-05-06 14:26 | 53.90315 | 28.03241 | 645 ft | 19 kts | 320° |
| 2026-05-06 14:26 | 53.90413 | 28.03154 | 643 ft | 13 kts | 24° |
| 2026-05-06 14:27 | 53.90418 | 28.03158 | 643 ft | 0 kts | 33° |
| 2026-05-06 14:27 | 53.90449 | 28.03204 | 643 ft | 11 kts | 45° |
| 2026-05-06 14:27 | 53.90509 | 28.03319 | 643 ft | 7 kts | 61° |
| 2026-05-06 14:27 | 53.90491 | 28.03382 | 643 ft | 5 kts | 139° |
| 2026-05-06 14:28 | 53.90466 | 28.03420 | 644 ft | 18 kts | 138° |
| 2026-05-06 14:28 | 53.90208 | 28.03804 | 651 ft | 81 kts | 139° |
| 2026-05-06 14:28 | 53.89629 | 28.04662 | 679 ft | 138 kts | 139° |
| 2026-05-06 14:28 | 53.88808 | 28.05894 | 837 ft | 171 kts | 143° |
| 2026-05-06 14:29 | 53.87896 | 28.07268 | 1269 ft | 182 kts | 144° |
| 2026-05-06 14:29 | 53.86897 | 28.08733 | 1652 ft | 201 kts | 145° |
| 2026-05-06 14:29 | 53.85803 | 28.10334 | 2128 ft | 217 kts | 143° |
| 2026-05-06 14:29 | 53.84645 | 28.12052 | 2692 ft | 227 kts | 143° |
| 2026-05-06 14:30 | 53.83468 | 28.13842 | 3253 ft | 230 kts | 136° |
| 2026-05-06 14:30 | 53.82749 | 28.16257 | 3746 ft | 242 kts | 101° |
| 2026-05-06 14:30 | 53.82915 | 28.19122 | 4264 ft | 251 kts | 76° |
| 2026-05-06 14:30 | 53.83595 | 28.21880 | 4642 ft | 265 kts | 60° |
| 2026-05-06 14:31 | 53.84714 | 28.24525 | 4938 ft | 283 kts | 51° |
| 2026-05-06 14:31 | 53.86045 | 28.27057 | 5271 ft | 300 kts | 47° |
| 2026-05-06 14:31 | 53.87491 | 28.29618 | 6060 ft | 299 kts | 46° |
| 2026-05-06 14:31 | 53.88929 | 28.32129 | 6760 ft | 302 kts | 46° |
| 2026-05-06 14:32 | 53.90386 | 28.34675 | 7407 ft | 306 kts | 46° |
| 2026-05-06 14:32 | 53.91866 | 28.37265 | 8076 ft | 310 kts | 45° |
| 2026-05-06 14:32 | 53.93367 | 28.39894 | 8747 ft | 313 kts | 45° |
| 2026-05-06 14:32 | 53.94894 | 28.42573 | 9419 ft | 317 kts | 45° |
| 2026-05-06 14:33 | 53.96410 | 28.45236 | 10044 ft | 320 kts | 45° |
| 2026-05-06 14:33 | 53.97967 | 28.47970 | 10717 ft | 322 kts | 45° |
| 2026-05-06 14:33 | 54.00062 | 28.51658 | 11330 ft | 335 kts | 45° |
| 2026-05-06 14:33 | 54.01159 | 28.53591 | 11590 ft | 344 kts | 45° |
| 2026-05-06 14:34 | 54.02835 | 28.56548 | 11972 ft | 357 kts | 45° |
| 2026-05-06 14:34 | 54.04556 | 28.59584 | 12771 ft | 355 kts | 45° |
| 2026-05-06 14:34 | 54.06261 | 28.62600 | 13415 ft | 359 kts | 45° |
| 2026-05-06 14:34 | 54.07993 | 28.65669 | 14020 ft | 362 kts | 46° |
| 2026-05-06 14:35 | 54.09885 | 28.68561 | 14615 ft | 364 kts | 33° |
| 2026-05-06 14:35 | 54.12154 | 28.70482 | 15193 ft | 364 kts | 15° |
| 2026-05-06 14:35 | 54.14615 | 28.71411 | 15788 ft | 363 kts | 5° |
| 2026-05-06 14:35 | 54.17110 | 28.71997 | 16355 ft | 365 kts | 4° |
| 2026-05-06 14:36 | 54.19637 | 28.72588 | 16937 ft | 368 kts | 5° |
| 2026-05-06 14:36 | 54.22163 | 28.73237 | 17517 ft | 371 kts | 5° |
| 2026-05-06 14:36 | 54.24706 | 28.73928 | 18093 ft | 374 kts | 5° |
| 2026-05-06 14:36 | 54.27288 | 28.74647 | 18672 ft | 376 kts | 6° |
| 2026-05-06 14:37 | 54.29855 | 28.75365 | 19245 ft | 378 kts | 6° |
| 2026-05-06 14:37 | 54.32469 | 28.76097 | 19803 ft | 381 kts | 6° |
| 2026-05-06 14:37 | 54.35089 | 28.76831 | 20381 ft | 383 kts | 6° |
| 2026-05-06 14:37 | 54.37713 | 28.77567 | 20945 ft | 385 kts | 6° |
| 2026-05-06 14:38 | 54.40355 | 28.78308 | 21473 ft | 388 kts | 6° |
| 2026-05-06 14:38 | 54.43011 | 28.79055 | 21997 ft | 391 kts | 7° |
| 2026-05-06 14:38 | 54.45677 | 28.79805 | 22509 ft | 393 kts | 7° |
| 2026-05-06 14:38 | 54.48376 | 28.80565 | 23019 ft | 396 kts | 6° |
| 2026-05-06 14:39 | 54.52018 | 28.81273 | 23645 ft | 399 kts | 2° |
| 2026-05-06 14:39 | 54.53854 | 28.81525 | 23970 ft | 400 kts | 1° |
| 2026-05-06 14:39 | 54.56634 | 28.81897 | 24481 ft | 402 kts | 2° |
| 2026-05-06 14:39 | 54.59439 | 28.82290 | 24948 ft | 406 kts | 2° |
| 2026-05-06 14:40 | 54.62233 | 28.82701 | 25401 ft | 409 kts | 2° |
| 2026-05-06 14:40 | 54.65112 | 28.83136 | 25877 ft | 411 kts | 2° |
| 2026-05-06 14:40 | 54.67963 | 28.83571 | 26313 ft | 414 kts | 2° |
| 2026-05-06 14:40 | 54.70828 | 28.84010 | 26747 ft | 416 kts | 2° |
| 2026-05-06 14:41 | 54.73708 | 28.84451 | 27169 ft | 419 kts | 2° |
| 2026-05-06 14:41 | 54.76579 | 28.84891 | 27588 ft | 421 kts | 2° |
| 2026-05-06 14:41 | 54.79506 | 28.85340 | 28014 ft | 424 kts | 2° |
| 2026-05-06 14:41 | 54.82467 | 28.85795 | 28384 ft | 427 kts | 2° |
| 2026-05-06 14:42 | 54.85419 | 28.86250 | 28808 ft | 429 kts | 2° |
| 2026-05-06 14:42 | 54.88379 | 28.86706 | 29144 ft | 433 kts | 2° |
| 2026-05-06 14:42 | 54.91392 | 28.87171 | 29542 ft | 435 kts | 2° |
| 2026-05-06 14:42 | 54.94412 | 28.87638 | 29908 ft | 438 kts | 2° |
| 2026-05-06 14:43 | 54.97443 | 28.88108 | 30239 ft | 442 kts | 2° |
| 2026-05-06 14:43 | 55.00496 | 28.88581 | 30633 ft | 444 kts | 2° |
| 2026-05-06 14:43 | 55.03555 | 28.89056 | 31029 ft | 446 kts | 2° |
| 2026-05-06 14:43 | 55.06654 | 28.89538 | 31422 ft | 448 kts | 2° |
| 2026-05-06 14:44 | 55.09749 | 28.90020 | 31832 ft | 449 kts | 2° |
| 2026-05-06 14:44 | 55.12855 | 28.90505 | 32216 ft | 451 kts | 2° |
| 2026-05-06 14:44 | 55.15991 | 28.90996 | 32586 ft | 453 kts | 2° |
| 2026-05-06 14:45 | 55.22275 | 28.91981 | 33281 ft | 457 kts | 2° |
| 2026-05-06 14:45 | 55.25406 | 28.92472 | 33645 ft | 458 kts | 2° |
| 2026-05-06 14:45 | 55.28575 | 28.92987 | 33984 ft | 460 kts | 3° |
| 2026-05-06 14:45 | 55.31775 | 28.93542 | 34290 ft | 463 kts | 3° |
| 2026-05-06 14:46 | 55.34941 | 28.94102 | 34592 ft | 465 kts | 3° |
| 2026-05-06 14:46 | 55.38181 | 28.94677 | 34865 ft | 467 kts | 3° |
| 2026-05-06 14:46 | 55.41452 | 28.95256 | 35153 ft | 469 kts | 3° |
| 2026-05-06 14:46 | 55.44662 | 28.95823 | 35391 ft | 471 kts | 3° |
| 2026-05-06 14:47 | 55.47943 | 28.96403 | 35648 ft | 472 kts | 2° |
| 2026-05-06 14:47 | 55.51196 | 28.96977 | 35866 ft | 474 kts | 2° |
| 2026-05-06 14:47 | 55.54475 | 28.97557 | 36105 ft | 476 kts | 2° |
| 2026-05-06 14:47 | 55.57751 | 28.98137 | 36336 ft | 477 kts | 2° |
| 2026-05-06 14:48 | 55.61028 | 28.98717 | 36541 ft | 479 kts | 2° |
| 2026-05-06 14:48 | 55.64349 | 28.99306 | 36743 ft | 481 kts | 2° |
| 2026-05-06 14:48 | 55.67684 | 28.99898 | 36841 ft | 485 kts | 2° |
| 2026-05-06 14:49 | 55.74488 | 29.01108 | 36872 ft | 496 kts | 2° |
| 2026-05-06 14:49 | 55.81410 | 29.02345 | 36878 ft | 507 kts | 2° |
| 2026-05-06 14:50 | 55.88476 | 29.03614 | 36874 ft | 516 kts | 2° |
| 2026-05-06 14:50 | 55.95592 | 29.04899 | 36877 ft | 519 kts | 2° |
| 2026-05-06 14:51 | 56.02775 | 29.06202 | 36876 ft | 519 kts | 1° |
| 2026-05-06 14:51 | 56.09942 | 29.06770 | 36882 ft | 515 kts | 356° |
| 2026-05-06 14:52 | 56.17090 | 29.06899 | 36881 ft | 515 kts | 356° |
| 2026-05-06 14:52 | 56.23759 | 29.07081 | 36886 ft | 515 kts | 356° |
| 2026-05-06 14:53 | 56.31361 | 29.07331 | 36889 ft | 515 kts | 356° |
| 2026-05-06 14:53 | 56.38523 | 29.07498 | 36894 ft | 515 kts | 356° |
| 2026-05-06 14:54 | 56.45766 | 29.07663 | 36894 ft | 513 kts | 356° |
| 2026-05-06 14:54 | 56.53022 | 29.07836 | 36901 ft | 514 kts | 356° |
| 2026-05-06 14:55 | 56.60247 | 29.08011 | 36897 ft | 516 kts | 356° |
| 2026-05-06 14:55 | 56.68659 | 29.08218 | 36906 ft | 515 kts | 356° |
| 2026-05-06 14:56 | 56.74712 | 29.08368 | 36901 ft | 514 kts | 356° |
| 2026-05-06 14:56 | 56.81953 | 29.08580 | 36910 ft | 515 kts | 356° |
| 2026-05-06 14:57 | 56.89182 | 29.08874 | 36912 ft | 515 kts | 356° |
| 2026-05-06 14:57 | 56.96306 | 29.09169 | 36917 ft | 515 kts | 356° |
| 2026-05-06 14:58 | 57.03492 | 29.09458 | 36920 ft | 514 kts | 356° |
| 2026-05-06 14:58 | 57.10725 | 29.09747 | 36930 ft | 514 kts | 356° |
| 2026-05-06 14:59 | 57.18024 | 29.10039 | 36940 ft | 516 kts | 355° |
| 2026-05-06 14:59 | 57.25329 | 29.10331 | 36934 ft | 517 kts | 355° |
| 2026-05-06 15:00 | 57.32540 | 29.10624 | 36928 ft | 517 kts | 355° |
| 2026-05-06 15:00 | 57.39994 | 29.10928 | 36929 ft | 516 kts | 355° |
| 2026-05-06 15:01 | 57.47252 | 29.11224 | 36935 ft | 515 kts | 355° |
| 2026-05-06 15:01 | 57.54423 | 29.11517 | 36932 ft | 516 kts | 355° |
| 2026-05-06 15:02 | 57.61560 | 29.11810 | 36945 ft | 516 kts | 355° |
| 2026-05-06 15:02 | 57.68809 | 29.12792 | 36944 ft | 522 kts | 1° |
| 2026-05-06 15:03 | 57.76057 | 29.14444 | 36940 ft | 521 kts | 358° |
| 2026-05-06 15:03 | 57.83274 | 29.15064 | 36940 ft | 518 kts | 355° |
| 2026-05-06 15:04 | 57.90463 | 29.15402 | 36934 ft | 518 kts | 355° |
| 2026-05-06 15:04 | 57.97663 | 29.15785 | 36952 ft | 518 kts | 355° |
| 2026-05-06 15:05 | 58.04857 | 29.15935 | 36955 ft | 514 kts | 351° |
| 2026-05-06 15:05 | 58.12049 | 29.15056 | 36951 ft | 512 kts | 349° |
| 2026-05-06 15:06 | 58.19117 | 29.14183 | 36943 ft | 511 kts | 352° |
| 2026-05-06 15:06 | 58.22642 | 29.14215 | 36967 ft | 498 kts | 354° |
| 2026-05-06 15:06 | 58.26017 | 29.14426 | 36889 ft | 485 kts | 355° |
| 2026-05-06 15:06 | 58.29375 | 29.14672 | 36639 ft | 481 kts | 355° |
| 2026-05-06 15:07 | 58.32727 | 29.14901 | 36418 ft | 481 kts | 354° |
| 2026-05-06 15:07 | 58.36068 | 29.15109 | 36237 ft | 481 kts | 354° |
| 2026-05-06 15:07 | 58.39399 | 29.15304 | 36029 ft | 481 kts | 354° |
| 2026-05-06 15:07 | 58.42750 | 29.15493 | 35819 ft | 479 kts | 354° |
| 2026-05-06 15:08 | 58.46046 | 29.15676 | 35503 ft | 479 kts | 353° |
| 2026-05-06 15:08 | 58.49358 | 29.15859 | 35147 ft | 476 kts | 353° |
| 2026-05-06 15:08 | 58.52668 | 29.16043 | 34726 ft | 471 kts | 353° |
| 2026-05-06 15:08 | 58.55874 | 29.16222 | 34236 ft | 465 kts | 353° |
| 2026-05-06 15:09 | 58.59097 | 29.16400 | 33732 ft | 460 kts | 353° |
| 2026-05-06 15:09 | 58.62266 | 29.16575 | 33216 ft | 456 kts | 353° |